Time;durP1;ratioP1;P1;durP2;ratioP2;P2;SDS_P1;SDS_P2;PMS_P1;PMS_P2;Temp;Humidity;BMP_temperature;BMP_pressure;BME280_temperature;BME280_humidity;BME280_pressure;Samples;Min_cycle;Max_cycle;Signal;HPM_P1;HPM_P2
2022/04/10 00:02:13;;;;;;;1.52;1.42;;;6.50;84.40;;;;;;5026108;28;20251;-76
2022/04/10 00:04:42;;;;;;;1.63;1.60;;;6.50;83.90;;;;;;5027540;28;20706;-76
2022/04/10 00:07:09;;;;;;;1.60;1.50;;;6.50;83.80;;;;;;5024525;28;20219;-80
2022/04/10 00:09:36;;;;;;;1.90;1.80;;;6.50;82.50;;;;;;5030990;28;20216;-77
2022/04/10 00:12:03;;;;;;;1.55;1.52;;;6.60;83.40;;;;;;5031913;28;20219;-74
2022/04/10 00:14:30;;;;;;;1.23;1.23;;;6.60;83.70;;;;;;5027319;28;20375;-75
2022/04/10 00:16:57;;;;;;;1.65;1.65;;;6.50;83.70;;;;;;5027900;28;20215;-75
2022/04/10 00:19:24;;;;;;;1.85;1.75;;;6.50;83.20;;;;;;5026317;28;20191;-78
2022/04/10 00:21:53;;;;;;;1.60;1.50;;;6.50;83.10;;;;;;5029115;28;20222;-75
2022/04/10 00:24:20;;;;;;;1.40;1.17;;;6.50;83.00;;;;;;5031558;28;20274;-78
2022/04/10 00:26:47;;;;;;;1.50;1.45;;;6.50;83.90;;;;;;5028626;28;20216;-78
2022/04/10 00:29:14;;;;;;;1.50;1.50;;;6.50;83.50;;;;;;5030092;28;20633;-76
2022/04/10 00:31:41;;;;;;;1.70;1.70;;;6.50;83.90;;;;;;5028213;28;20227;-77
2022/04/10 00:34:08;;;;;;;1.60;1.50;;;6.50;83.80;;;;;;5027753;28;20304;-78
2022/04/10 00:36:35;;;;;;;1.90;1.90;;;6.40;83.90;;;;;;5033526;28;20228;-76
2022/04/10 00:39:04;;;;;;;1.58;1.48;;;6.40;84.10;;;;;;5032792;28;20199;-75
2022/04/10 00:41:31;;;;;;;1.42;1.42;;;6.30;84.20;;;;;;5029515;28;20232;-77
2022/04/10 00:44:09;;;;;;;1.58;1.58;;;6.30;84.40;;;;;;5039995;28;20278;-76
2022/04/10 00:46:36;;;;;;;1.73;1.73;;;6.30;83.90;;;;;;5024970;28;20219;-76
2022/04/10 00:49:04;;;;;;;1.42;1.33;;;6.30;83.40;;;;;;5029745;28;20224;-77
2022/04/10 00:51:43;;;;;;;1.40;1.40;;;6.30;83.60;;;;;;5030741;28;20219;-76
2022/04/10 00:54:13;;;;;;;1.60;1.50;;;6.30;83.60;;;;;;5034596;28;20238;-76
2022/04/10 00:56:41;;;;;;;1.60;1.60;;;6.30;84.80;;;;;;5030977;28;20228;-74
2022/04/10 00:59:08;;;;;;;1.60;1.50;;;6.30;84.60;;;;;;5028179;28;20197;-75
2022/04/10 01:01:36;;;;;;;1.83;1.73;;;6.20;84.60;;;;;;5028598;28;20224;-80
2022/04/10 01:04:05;;;;;;;1.40;1.30;;;6.20;84.80;;;;;;5029655;28;20246;-77
2022/04/10 01:06:33;;;;;;;1.55;1.55;;;6.20;84.90;;;;;;5028343;28;20230;-74
2022/04/10 01:09:01;;;;;;;1.55;1.45;;;6.20;85.10;;;;;;5033070;28;20216;-74
2022/04/10 01:11:30;;;;;;;1.70;1.60;;;6.10;85.50;;;;;;5033788;28;20224;-77
2022/04/10 01:13:58;;;;;;;1.77;1.70;;;6.10;85.00;;;;;;5031595;28;20220;-75
2022/04/10 01:16:25;;;;;;;1.60;1.60;;;6.10;84.10;;;;;;5034969;28;20216;-74
2022/04/10 01:18:52;;;;;;;1.27;1.27;;;6.00;84.40;;;;;;5032183;28;20246;-75
2022/04/10 01:21:25;;;;;;;1.98;1.63;;;6.10;84.20;;;;;;5034708;28;20243;-77
2022/04/10 01:23:54;;;;;;;1.55;1.55;;;6.10;83.70;;;;;;5034850;28;20220;-78
2022/04/10 01:26:22;;;;;;;1.27;1.27;;;6.10;84.30;;;;;;5038255;28;20231;-76
2022/04/10 01:28:59;;;;;;;2.00;1.90;;;6.00;83.80;;;;;;5033895;28;20215;-75
2022/04/10 01:31:26;;;;;;;1.58;1.48;;;6.10;83.40;;;;;;5034239;28;20246;-80
2022/04/10 01:33:56;;;;;;;1.90;1.80;;;6.00;84.10;;;;;;5029125;28;20223;-75
2022/04/10 01:36:25;;;;;;;1.45;1.45;;;6.00;84.00;;;;;;5032412;28;20223;-75
2022/04/10 01:38:55;;;;;;;1.33;1.33;;;6.00;85.70;;;;;;5042016;28;20199;-76
2022/04/10 01:41:22;;;;;;;1.90;1.80;;;6.00;84.40;;;;;;5032312;28;20667;-75
2022/04/10 01:43:50;;;;;;;1.67;1.58;;;5.90;85.20;;;;;;5033255;28;21210;-74
2022/04/10 01:46:17;;;;;;;1.75;1.65;;;5.90;86.10;;;;;;5037743;28;20610;-76
2022/04/10 01:48:45;;;;;;;1.92;1.83;;;5.90;85.80;;;;;;5033733;28;20630;-80
2022/04/10 01:51:13;;;;;;;1.90;1.80;;;5.90;86.30;;;;;;5035997;28;20223;-74
2022/04/10 01:53:40;;;;;;;1.50;1.50;;;5.80;86.80;;;;;;5033304;28;20223;-76
2022/04/10 01:56:10;;;;;;;1.70;1.60;;;5.80;87.00;;;;;;5030779;28;20227;-76
2022/04/10 01:58:39;;;;;;;1.83;1.73;;;5.80;86.90;;;;;;5031080;28;20261;-75
2022/04/10 02:01:07;;;;;;;1.98;1.88;;;5.70;87.00;;;;;;5034337;28;20227;-74
2022/04/10 02:03:35;;;;;;;1.75;1.65;;;5.70;86.50;;;;;;5030865;28;20233;-76
2022/04/10 02:06:02;;;;;;;1.92;1.83;;;5.80;85.90;;;;;;5031738;28;20223;-78
2022/04/10 02:08:31;;;;;;;1.67;1.67;;;5.80;85.30;;;;;;5035024;28;20988;-75
2022/04/10 02:10:58;;;;;;;1.55;1.50;;;5.80;85.80;;;;;;5030164;28;20226;-73
2022/04/10 02:13:26;;;;;;;1.90;1.80;;;5.80;85.60;;;;;;5031325;28;20786;-78
2022/04/10 02:15:53;;;;;;;1.88;1.77;;;5.80;86.10;;;;;;5031072;28;20227;-80
2022/04/10 02:18:20;;;;;;;1.80;1.70;;;5.90;85.70;;;;;;5036919;28;20214;-74
2022/04/10 02:20:47;;;;;;;1.63;1.52;;;5.90;85.00;;;;;;5032967;28;20207;-77
2022/04/10 02:23:14;;;;;;;2.22;2.03;;;5.90;85.20;;;;;;5032945;28;20231;-76
2022/04/10 02:25:41;;;;;;;2.10;2.00;;;5.80;85.70;;;;;;5031228;28;20210;-74
2022/04/10 02:28:08;;;;;;;1.60;1.50;;;5.70;87.10;;;;;;5033217;28;20191;-74
2022/04/10 02:30:38;;;;;;;2.10;2.00;;;5.50;87.80;;;;;;5028971;28;20203;-74
2022/04/10 02:33:05;;;;;;;1.70;1.60;;;5.30;88.30;;;;;;5032366;28;20228;-74
2022/04/10 02:35:32;;;;;;;2.03;1.50;;;5.20;89.30;;;;;;5026932;28;20200;-72
2022/04/10 02:37:59;;;;;;;2.13;2.03;;;5.10;89.50;;;;;;5024536;28;20215;-76
2022/04/10 02:40:26;;;;;;;1.77;1.77;;;5.00;90.00;;;;;;5025927;28;20191;-75
2022/04/10 02:42:53;;;;;;;2.00;1.90;;;4.90;90.20;;;;;;5026745;28;20235;-74
2022/04/10 02:45:20;;;;;;;1.88;1.77;;;4.90;90.00;;;;;;5025134;28;20196;-74
2022/04/10 02:47:49;;;;;;;2.00;1.90;;;4.90;90.00;;;;;;5024453;28;20246;-74
2022/04/10 02:50:16;;;;;;;2.50;2.30;;;4.90;89.80;;;;;;5027062;28;20959;-73
2022/04/10 02:52:43;;;;;;;2.10;2.00;;;4.90;90.10;;;;;;5028948;28;20246;-74
2022/04/10 02:55:10;;;;;;;2.10;2.00;;;4.80;90.10;;;;;;5039210;22;20231;-77
2022/04/10 02:57:37;;;;;;;2.28;2.17;;;4.80;90.20;;;;;;5019202;28;20247;-77
2022/04/10 03:00:06;;;;;;;2.20;2.10;;;4.80;90.20;;;;;;5017479;28;20226;-77
2022/04/10 03:02:33;;;;;;;2.30;2.20;;;4.80;90.00;;;;;;5021011;28;20231;-75
2022/04/10 03:05:02;;;;;;;2.00;1.90;;;4.80;90.00;;;;;;5011077;28;20216;-76
2022/04/10 03:07:29;;;;;;;2.13;2.03;;;4.80;90.10;;;;;;5002227;28;20215;-77
2022/04/10 03:09:56;;;;;;;1.83;1.77;;;4.80;90.20;;;;;;5006345;28;20665;-77
2022/04/10 03:12:23;;;;;;;2.20;2.10;;;4.80;89.60;;;;;;5006439;28;20216;-76
2022/04/10 03:14:50;;;;;;;1.95;1.85;;;4.80;89.90;;;;;;5009185;28;20216;-76
2022/04/10 03:17:17;;;;;;;2.58;2.47;;;4.80;89.60;;;;;;5005267;28;20220;-77
2022/04/10 03:19:44;;;;;;;2.13;2.03;;;4.80;89.50;;;;;;5007976;28;20207;-76
2022/04/10 03:22:12;;;;;;;2.15;2.05;;;4.90;89.50;;;;;;5008050;28;20540;-78
2022/04/10 03:24:39;;;;;;;2.00;1.90;;;4.90;89.50;;;;;;5008666;28;20222;-77
2022/04/10 03:27:06;;;;;;;1.83;1.73;;;4.90;89.10;;;;;;5009943;28;20231;-77
2022/04/10 03:29:33;;;;;;;2.22;2.03;;;4.90;88.70;;;;;;5009019;28;20697;-76
2022/04/10 03:32:00;;;;;;;2.17;2.05;;;4.90;88.80;;;;;;5008624;28;20235;-77
2022/04/10 03:34:27;;;;;;;1.92;1.83;;;4.90;88.70;;;;;;5007439;28;20290;-78
2022/04/10 03:36:54;;;;;;;1.98;1.88;;;4.90;89.10;;;;;;5009004;28;20937;-77
2022/04/10 03:39:23;;;;;;;1.85;1.75;;;4.90;89.10;;;;;;5008645;28;20200;-77
2022/04/10 03:41:50;;;;;;;2.38;2.28;;;4.80;90.50;;;;;;5007827;28;20212;-78
2022/04/10 03:44:17;;;;;;;2.33;2.15;;;4.70;90.80;;;;;;5010096;28;20678;-77
2022/04/10 03:46:44;;;;;;;2.20;2.10;;;4.50;90.90;;;;;;5008856;28;20252;-76
2022/04/10 03:49:11;;;;;;;1.73;1.63;;;4.40;91.00;;;;;;5008335;28;20219;-77
2022/04/10 03:51:38;;;;;;;2.05;1.95;;;4.40;90.90;;;;;;5008391;28;20215;-77
2022/04/10 03:54:05;;;;;;;2.15;2.05;;;4.40;90.90;;;;;;5008537;28;20722;-77
2022/04/10 03:56:34;;;;;;;2.30;2.10;;;4.40;91.00;;;;;;5009387;28;20233;-77
2022/04/10 03:59:01;;;;;;;1.90;1.80;;;4.40;91.00;;;;;;5007810;28;20223;-77
2022/04/10 04:01:28;;;;;;;2.45;2.35;;;4.40;91.50;;;;;;5007831;28;20228;-77
2022/04/10 04:03:55;;;;;;;2.08;1.98;;;4.30;92.00;;;;;;5009728;28;20666;-77
2022/04/10 04:06:22;;;;;;;1.90;1.75;;;4.20;92.40;;;;;;5006496;28;20237;-76
2022/04/10 04:08:49;;;;;;;1.90;1.80;;;4.20;92.50;;;;;;5010793;28;20328;-77
2022/04/10 04:11:16;;;;;;;2.10;2.00;;;4.20;92.60;;;;;;5007471;28;20571;-77
2022/04/10 04:13:44;;;;;;;1.90;1.83;;;4.20;92.30;;;;;;5008754;28;20211;-76
2022/04/10 04:16:11;;;;;;;2.15;2.05;;;4.20;92.20;;;;;;5007901;28;20254;-77
2022/04/10 04:18:38;;;;;;;2.40;2.30;;;4.20;91.80;;;;;;5008677;28;20628;-76
2022/04/10 04:21:05;;;;;;;2.13;2.03;;;4.30;91.30;;;;;;5004253;28;20274;-77
2022/04/10 04:23:32;;;;;;;2.08;1.98;;;4.40;91.10;;;;;;5002630;28;20225;-77
2022/04/10 04:25:59;;;;;;;2.10;2.00;;;4.30;91.40;;;;;;5004263;28;20216;-76
2022/04/10 04:28:26;;;;;;;2.30;2.20;;;4.30;91.70;;;;;;5004488;28;20224;-76
2022/04/10 04:30:55;;;;;;;2.05;1.95;;;4.20;91.90;;;;;;5005586;28;20235;-78
2022/04/10 04:33:22;;;;;;;2.20;2.10;;;4.20;92.20;;;;;;5000947;28;20215;-77
2022/04/10 04:35:49;;;;;;;2.30;2.20;;;4.10;92.40;;;;;;5004569;28;20227;-77
2022/04/10 04:38:17;;;;;;;1.90;1.80;;;4.10;92.60;;;;;;5004948;28;20229;-77
2022/04/10 04:40:44;;;;;;;2.13;2.03;;;4.10;92.90;;;;;;5002849;28;20200;-76
2022/04/10 04:43:11;;;;;;;2.08;1.98;;;4.00;93.10;;;;;;5004768;28;20221;-76
2022/04/10 04:45:38;;;;;;;1.88;1.75;;;4.00;92.80;;;;;;5004395;28;20536;-77
2022/04/10 04:48:07;;;;;;;2.08;1.98;;;4.00;92.60;;;;;;5005315;28;20286;-77
2022/04/10 04:50:34;;;;;;;1.85;1.77;;;3.90;92.90;;;;;;5004350;28;20213;-76
2022/04/10 04:53:01;;;;;;;1.77;1.67;;;3.90;93.30;;;;;;5008223;28;20706;-78
2022/04/10 04:55:28;;;;;;;1.92;1.83;;;3.90;93.40;;;;;;5003282;28;20271;-77
2022/04/10 04:57:56;;;;;;;2.08;1.98;;;3.80;93.40;;;;;;5005220;28;20901;-79
2022/04/10 05:00:23;;;;;;;1.92;1.83;;;3.80;93.70;;;;;;5003314;28;20276;-77
2022/04/10 05:02:50;;;;;;;2.05;1.95;;;3.80;94.00;;;;;;5004733;28;20642;-78
2022/04/10 05:05:19;;;;;;;2.00;1.90;;;3.80;94.20;;;;;;5004475;28;20221;-77
2022/04/10 05:07:45;;;;;;;2.13;2.03;;;3.80;94.20;;;;;;5003887;28;20278;-76
2022/04/10 05:10:12;;;;;;;2.60;2.40;;;3.90;94.20;;;;;;5003275;28;20220;-76
2022/04/10 05:12:39;;;;;;;2.45;2.35;;;3.80;94.00;;;;;;5002425;28;20526;-77
2022/04/10 05:15:08;;;;;;;2.28;2.17;;;3.80;93.80;;;;;;5003610;28;20648;-78
2022/04/10 05:17:36;;;;;;;2.10;2.00;;;3.80;94.30;;;;;;5004697;28;20298;-77
2022/04/10 05:20:05;;;;;;;2.20;2.10;;;4.10;94.00;;;;;;5003770;28;20197;-77
2022/04/10 05:22:33;;;;;;;2.35;1.90;;;4.50;93.90;;;;;;5001319;28;20234;-76
2022/04/10 05:25:00;;;;;;;2.22;2.13;;;4.90;93.80;;;;;;5003894;28;20216;-76
2022/04/10 05:27:27;;;;;;;2.50;2.30;;;5.30;93.30;;;;;;5001911;28;20698;-78
2022/04/10 05:29:54;;;;;;;2.25;2.10;;;5.60;93.20;;;;;;5002816;28;20216;-77
2022/04/10 05:32:21;;;;;;;1.92;1.83;;;5.90;92.90;;;;;;5005431;28;20228;-76
2022/04/10 05:34:48;;;;;;;2.40;1.80;;;6.10;93.10;;;;;;5003697;28;20224;-77
2022/04/10 05:37:15;;;;;;;2.58;2.38;;;6.10;93.40;;;;;;5003098;28;20726;-77
2022/04/10 05:39:44;;;;;;;2.00;1.90;;;6.30;94.00;;;;;;5001718;28;20200;-77
2022/04/10 05:42:11;;;;;;;2.53;2.42;;;6.50;93.90;;;;;;5002639;28;20231;-77
2022/04/10 05:44:38;;;;;;;1.90;1.80;;;6.90;93.90;;;;;;5003514;28;20216;-77
2022/04/10 05:47:06;;;;;;;2.45;2.25;;;7.20;93.50;;;;;;5003665;28;20224;-77
2022/04/10 05:49:33;;;;;;;2.95;2.33;;;7.50;93.30;;;;;;5002569;28;20225;-76
2022/04/10 05:52:00;;;;;;;2.20;2.10;;;7.80;93.10;;;;;;5001702;28;20220;-77
2022/04/10 05:54:27;;;;;;;3.08;2.88;;;8.10;92.40;;;;;;4999667;28;20692;-78
2022/04/10 05:56:55;;;;;;;2.92;2.63;;;8.40;92.40;;;;;;5003032;28;20266;-78
2022/04/10 05:59:23;;;;;;;3.42;2.30;;;8.50;92.00;;;;;;4999742;28;20566;-77
2022/04/10 06:01:50;;;;;;;1.85;1.75;;;8.40;92.30;;;;;;5005571;28;20278;-78
2022/04/10 06:04:17;;;;;;;2.13;2.00;;;8.30;92.80;;;;;;5001293;28;20225;-77
2022/04/10 06:06:44;;;;;;;1.80;1.70;;;8.30;92.60;;;;;;5000705;28;20201;-77
2022/04/10 06:09:11;;;;;;;2.08;1.98;;;8.30;92.50;;;;;;5000877;28;20208;-78
2022/04/10 06:11:38;;;;;;;2.10;2.00;;;8.60;92.80;;;;;;5005522;28;20270;-78
2022/04/10 06:14:07;;;;;;;2.05;1.90;;;8.80;92.80;;;;;;5003285;28;20278;-78
2022/04/10 06:16:34;;;;;;;2.80;1.90;;;8.90;92.60;;;;;;5000878;28;20202;-77
2022/04/10 06:19:01;;;;;;;2.47;2.30;;;9.00;92.80;;;;;;5002719;28;20714;-79
2022/04/10 06:21:28;;;;;;;2.42;2.20;;;8.80;92.30;;;;;;5005589;28;20204;-77
2022/04/10 06:23:55;;;;;;;2.45;2.25;;;8.70;92.40;;;;;;4998698;28;20230;-77
2022/04/10 06:26:22;;;;;;;4.05;2.13;;;8.80;92.30;;;;;;5007533;28;20199;-77
2022/04/10 06:28:49;;;;;;;2.15;1.95;;;9.00;92.00;;;;;;4998647;28;20231;-77
2022/04/10 06:31:18;;;;;;;1.92;1.83;;;9.10;92.20;;;;;;5001784;28;20227;-78
2022/04/10 06:33:45;;;;;;;4.97;2.55;;;9.30;92.30;;;;;;5002560;28;20221;-77
2022/04/10 06:36:12;;;;;;;2.00;1.90;;;9.60;92.00;;;;;;5003908;28;20235;-77
2022/04/10 06:38:39;;;;;;;2.05;1.85;;;9.90;91.80;;;;;;5001934;28;20282;-79
2022/04/10 06:41:06;;;;;;;3.08;1.85;;;10.10;91.70;;;;;;5002189;28;20203;-78
2022/04/10 06:43:33;;;;;;;1.85;1.75;;;10.00;91.30;;;;;;4996717;28;20225;-77
2022/04/10 06:46:00;;;;;;;2.10;1.67;;;10.10;91.80;;;;;;5000902;28;20644;-78
2022/04/10 06:48:28;;;;;;;1.73;1.63;;;10.40;91.30;;;;;;5000846;28;20271;-77
2022/04/10 06:50:56;;;;;;;1.77;1.67;;;10.50;91.00;;;;;;5000478;28;20224;-79
2022/04/10 06:53:23;;;;;;;2.05;1.67;;;10.50;90.70;;;;;;4996649;28;20220;-78
2022/04/10 06:55:50;;;;;;;1.45;1.35;;;10.40;90.00;;;;;;4999275;28;20263;-78
2022/04/10 06:58:19;;;;;;;2.33;1.65;;;10.30;90.40;;;;;;4998126;28;20219;-79
2022/04/10 07:00:46;;;;;;;1.65;1.50;;;10.30;90.10;;;;;;4997798;28;20189;-77
2022/04/10 07:03:13;;;;;;;1.60;1.50;;;10.60;90.10;;;;;;4999277;28;20230;-78
2022/04/10 07:05:42;;;;;;;1.83;1.63;;;10.90;90.50;;;;;;4995803;28;20222;-76
2022/04/10 07:08:09;;;;;;;1.70;1.38;;;11.20;90.80;;;;;;4998362;28;20278;-78
2022/04/10 07:10:37;;;;;;;1.60;1.50;;;11.40;90.90;;;;;;4995179;28;20287;-78
2022/04/10 07:13:04;;;;;;;1.70;1.60;;;11.50;90.50;;;;;;4997134;28;20228;-78
2022/04/10 07:15:31;;;;;;;1.85;1.75;;;11.50;90.50;;;;;;4996043;28;20212;-77
2022/04/10 07:17:59;;;;;;;2.40;2.00;;;11.40;91.10;;;;;;4995395;28;20758;-77
2022/04/10 07:20:26;;;;;;;1.60;1.50;;;11.50;91.40;;;;;;4999222;28;20868;-77
2022/04/10 07:25:39;;;;;;;1.60;1.50;;;11.50;91.00;;;;;;4998715;28;20236;-79
2022/04/10 07:28:06;;;;;;;2.33;1.90;;;11.40;91.40;;;;;;5002965;28;20224;-77
2022/04/10 07:30:33;;;;;;;3.17;1.67;;;11.40;91.70;;;;;;5004170;28;20716;-78
2022/04/10 07:33:01;;;;;;;2.20;2.00;;;11.40;92.90;;;;;;5001401;28;20605;-79
2022/04/10 07:35:28;;;;;;;1.67;1.42;;;11.60;91.30;;;;;;5003473;28;20254;-78
2022/04/10 07:37:56;;;;;;;2.00;1.80;;;11.80;90.70;;;;;;4993625;28;20228;-76
2022/04/10 07:40:24;;;;;;;1.75;1.58;;;12.20;90.50;;;;;;4996416;28;20402;-80
2022/04/10 07:42:51;;;;;;;3.33;1.80;;;12.50;89.70;;;;;;4997193;28;20216;-78
2022/04/10 07:47:59;;;;;;;3.25;1.42;;;12.70;87.40;;;;;;4996585;28;20240;-77
2022/04/10 07:50:26;;;;;;;1.88;1.73;;;12.80;86.70;;;;;;4997662;28;20208;-79
2022/04/10 07:52:54;;;;;;;7.03;1.73;;;12.90;84.50;;;;;;4997301;28;20225;-78
2022/04/10 07:55:25;;;;;;;1.58;1.48;;;12.90;84.50;;;;;;4998035;28;20884;-76
2022/04/10 07:57:52;;;;;;;1.55;1.45;;;12.60;85.40;;;;;;5000779;28;20247;-78
2022/04/10 08:00:19;;;;;;;1.98;1.55;;;12.50;85.90;;;;;;5004574;28;20208;-79
2022/04/10 08:02:48;;;;;;;1.50;1.30;;;12.30;84.00;;;;;;5005727;28;20216;-78
2022/04/10 08:05:15;;;;;;;2.00;1.85;;;12.40;85.20;;;;;;5005172;28;20262;-78
2022/04/10 08:07:43;;;;;;;1.30;1.25;;;12.50;84.90;;;;;;5003290;28;20286;-79
2022/04/10 08:10:11;;;;;;;1.50;1.40;;;12.80;84.50;;;;;;5000609;28;20593;-79
2022/04/10 08:12:39;;;;;;;4.78;1.40;;;12.80;81.70;;;;;;5004867;28;20618;-76
2022/04/10 08:15:08;;;;;;;1.70;1.60;;;12.80;84.50;;;;;;4996194;28;20721;-78
2022/04/10 08:17:35;;;;;;;1.58;1.48;;;12.70;85.90;;;;;;4998725;28;20621;-79
2022/04/10 08:20:04;;;;;;;2.30;1.70;;;12.90;84.40;;;;;;5002607;28;20224;-77
2022/04/10 08:22:32;;;;;;;1.60;1.50;;;13.10;84.70;;;;;;5001392;28;20196;-79
2022/04/10 08:25:02;;;;;;;1.90;1.60;;;13.10;82.90;;;;;;5004409;28;20784;-79
2022/04/10 08:27:29;;;;;;;1.92;1.60;;;13.10;80.00;;;;;;5001230;28;20642;-78
2022/04/10 08:29:59;;;;;;;1.33;1.17;;;13.00;80.80;;;;;;5002175;28;20204;-78
2022/04/10 08:32:26;;;;;;;4.85;1.65;;;13.10;81.60;;;;;;5009530;28;20254;-79
2022/04/10 08:34:53;;;;;;;2.13;1.60;;;13.00;83.00;;;;;;5011000;28;20216;-78
2022/04/10 08:37:20;;;;;;;1.40;1.30;;;13.00;84.30;;;;;;5005324;28;20330;-78
2022/04/10 08:39:47;;;;;;;1.55;1.42;;;13.10;84.40;;;;;;5003675;28;20283;-77
2022/04/10 08:42:14;;;;;;;1.58;1.48;;;13.10;85.40;;;;;;5005538;28;20200;-79
2022/04/10 08:44:41;;;;;;;1.60;1.50;;;13.20;85.00;;;;;;5007357;28;20242;-79
2022/04/10 08:47:09;;;;;;;1.70;1.60;;;13.30;83.00;;;;;;5004306;28;20209;-80
2022/04/10 08:49:37;;;;;;;1.70;1.60;;;13.20;84.70;;;;;;5002055;28;20698;-79
2022/04/10 08:52:05;;;;;;;1.42;1.20;;;13.30;86.10;;;;;;5005495;28;20763;-79
2022/04/10 08:54:34;;;;;;;1.42;1.33;;;13.40;83.00;;;;;;5002895;28;20219;-79
2022/04/10 08:57:03;;;;;;;3.60;1.48;;;13.50;84.40;;;;;;5041896;22;20718;-75
2022/04/10 08:59:30;;;;;;;1.55;1.45;;;13.40;83.10;;;;;;5030565;28;20685;-74
2022/04/10 09:01:57;;;;;;;1.63;1.52;;;13.50;82.80;;;;;;5027476;28;20200;-79
2022/04/10 09:04:25;;;;;;;1.70;1.60;;;13.50;83.40;;;;;;5023331;28;20246;-78
2022/04/10 09:06:59;;;;;;;1.38;1.27;;;13.60;81.90;;;;;;5015050;28;20223;-75
2022/04/10 09:09:27;;;;;;;1.80;1.20;;;13.70;81.10;;;;;;5012292;28;20255;-74
2022/04/10 09:11:55;;;;;;;1.60;1.50;;;13.80;82.50;;;;;;5010248;28;20255;-77
2022/04/10 09:14:23;;;;;;;1.80;1.70;;;13.70;81.30;;;;;;5022770;28;20268;-74
2022/04/10 09:17:10;;;;;;;2.13;1.45;;;14.00;80.70;;;;;;5030786;28;20224;-79
2022/04/10 09:19:41;;;;;;;1.30;1.20;;;14.20;81.30;;;;;;5025716;28;20481;-77
2022/04/10 09:22:21;;;;;;;1.50;1.40;;;14.20;79.50;;;;;;5029074;28;20242;-78
2022/04/10 09:25:02;;;;;;;1.48;1.38;;;14.20;76.60;;;;;;5030276;28;20225;-77
2022/04/10 09:27:33;;;;;;;1.63;1.52;;;14.20;76.00;;;;;;5031197;28;20218;-77
2022/04/10 09:30:00;;;;;;;1.00;1.00;;;14.30;76.00;;;;;;5038392;28;20226;-77
2022/04/10 09:32:41;;;;;;;1.20;1.17;;;14.60;79.20;;;;;;5035077;28;20246;-78
2022/04/10 09:35:11;;;;;;;1.52;1.23;;;15.00;77.30;;;;;;5030316;28;20204;-77
2022/04/10 09:37:49;;;;;;;1.52;1.40;;;15.20;76.90;;;;;;5029274;28;20227;-76
2022/04/10 09:40:30;;;;;;;1.75;1.33;;;14.70;73.20;;;;;;5037135;28;20216;-79
2022/04/10 09:43:01;;;;;;;2.40;1.23;;;14.60;74.90;;;;;;5026368;28;20231;-75
2022/04/10 09:45:30;;;;;;;1.50;1.40;;;15.20;74.80;;;;;;5028094;28;20206;-74
2022/04/10 09:47:57;;;;;;;1.48;1.38;;;15.50;76.70;;;;;;5032413;28;20222;-79
2022/04/10 09:50:33;;;;;;;1.15;1.10;;;15.30;68.90;;;;;;5022973;28;20203;-76
2022/04/10 09:53:07;;;;;;;1.13;1.02;;;15.20;66.30;;;;;;5024443;28;20779;-78
2022/04/10 09:55:38;;;;;;;0.90;0.90;;;15.40;66.50;;;;;;5030431;28;20222;-78
2022/04/10 09:58:09;;;;;;;1.30;1.20;;;15.40;67.70;;;;;;5030969;28;20811;-75
2022/04/10 10:00:40;;;;;;;1.13;1.10;;;15.70;68.90;;;;;;5030303;28;20206;-76
2022/04/10 10:03:08;;;;;;;1.05;1.05;;;16.20;71.40;;;;;;5031768;28;20286;-77
2022/04/10 10:05:38;;;;;;;0.90;0.90;;;16.20;68.60;;;;;;5029270;28;20530;-74
2022/04/10 10:08:06;;;;;;;1.33;1.23;;;15.70;67.10;;;;;;5029788;28;20228;-74
2022/04/10 10:10:34;;;;;;;1.02;1.00;;;15.30;67.40;;;;;;5028732;28;20307;-73
2022/04/10 10:13:03;;;;;;;1.40;1.30;;;14.70;71.20;;;;;;5031249;28;20234;-76
2022/04/10 10:15:30;;;;;;;0.90;0.90;;;14.20;68.00;;;;;;5023919;28;20740;-73
2022/04/10 10:17:58;;;;;;;1.58;1.00;;;13.80;69.10;;;;;;5022420;28;20229;-75
2022/04/10 10:20:25;;;;;;;1.83;1.25;;;13.60;69.00;;;;;;5031295;28;20207;-74
2022/04/10 10:22:54;;;;;;;1.13;1.10;;;13.40;69.10;;;;;;5032877;28;20211;-72
2022/04/10 10:25:27;;;;;;;1.20;1.10;;;13.50;72.40;;;;;;5029711;28;20198;-79
2022/04/10 10:28:32;;;;;;;1.20;1.10;;;13.40;71.90;;;;;;5025531;28;20226;-77
2022/04/10 10:31:14;;;;;;;1.10;1.00;;;13.30;72.60;;;;;;5032609;28;20723;-76
2022/04/10 10:33:49;;;;;;;1.42;1.33;;;13.30;73.80;;;;;;5031883;28;20566;-74
2022/04/10 10:36:23;;;;;;;1.00;1.00;;;13.40;70.30;;;;;;5032290;28;20223;-76
2022/04/10 10:38:54;;;;;;;1.52;1.00;;;13.40;71.50;;;;;;5035010;28;20569;-75
2022/04/10 10:41:37;;;;;;;1.10;1.10;;;13.60;71.00;;;;;;5041057;28;20196;-74
2022/04/10 10:44:41;;;;;;;1.40;1.30;;;14.30;72.20;;;;;;5036470;28;20317;-73
2022/04/10 10:47:18;;;;;;;0.95;0.95;;;14.80;71.20;;;;;;5017925;28;20222;-72
2022/04/10 10:49:46;;;;;;;0.98;0.95;;;15.40;68.80;;;;;;5036608;28;20275;-74
2022/04/10 10:52:14;;;;;;;1.30;1.20;;;15.80;68.30;;;;;;5034997;28;20222;-72
2022/04/10 10:54:46;;;;;;;1.00;1.00;;;16.10;69.00;;;;;;5035427;28;20437;-77
2022/04/10 10:57:27;;;;;;;1.77;1.10;;;16.50;70.60;;;;;;5034557;28;20227;-73
2022/04/10 11:00:04;;;;;;;2.10;1.40;;;17.10;73.20;;;;;;5024253;28;20775;-75
2022/04/10 11:02:35;;;;;;;1.85;1.02;;;17.30;71.20;;;;;;5022986;28;20290;-74
2022/04/10 11:05:06;;;;;;;1.08;1.00;;;17.10;68.40;;;;;;5028140;28;20238;-75
2022/04/10 11:07:38;;;;;;;2.28;0.90;;;16.60;69.10;;;;;;5028523;28;20307;-73
2022/04/10 11:10:09;;;;;;;1.02;1.00;;;16.40;69.80;;;;;;5032954;28;20225;-73
2022/04/10 11:12:38;;;;;;;1.10;1.00;;;16.00;67.60;;;;;;5029197;28;20306;-73
2022/04/10 11:15:17;;;;;;;0.90;0.90;;;16.00;71.20;;;;;;5034172;28;20290;-75
2022/04/10 11:17:44;;;;;;;1.10;1.10;;;16.20;68.00;;;;;;5027930;28;20261;-76
2022/04/10 11:20:13;;;;;;;1.55;1.20;;;16.10;70.20;;;;;;5032538;28;20232;-73
2022/04/10 11:22:46;;;;;;;0.90;0.90;;;16.20;69.30;;;;;;5029007;28;20455;-73
2022/04/10 11:25:17;;;;;;;1.05;0.93;;;16.80;68.60;;;;;;5028254;28;20214;-74
2022/04/10 11:27:49;;;;;;;1.17;1.00;;;17.20;65.50;;;;;;5029231;28;20305;-75
2022/04/10 11:30:21;;;;;;;0.90;0.90;;;16.60;63.90;;;;;;5026834;28;20301;-73
2022/04/10 11:32:51;;;;;;;0.98;0.90;;;16.20;67.80;;;;;;5034097;28;20219;-74
2022/04/10 11:35:25;;;;;;;0.93;0.93;;;16.60;70.60;;;;;;5011641;28;20295;-74
2022/04/10 11:37:54;;;;;;;1.95;1.08;;;17.00;71.20;;;;;;5016133;28;20657;-73
2022/04/10 11:40:25;;;;;;;0.90;0.90;;;17.40;70.30;;;;;;5031804;28;20230;-73
2022/04/10 11:42:54;;;;;;;1.10;1.00;;;17.80;69.80;;;;;;5029869;28;20287;-76
2022/04/10 11:45:25;;;;;;;1.10;1.00;;;18.30;69.60;;;;;;5026919;28;20223;-74
2022/04/10 11:47:53;;;;;;;0.75;0.75;;;18.60;71.10;;;;;;5028651;28;20203;-74
2022/04/10 11:50:20;;;;;;;0.80;0.80;;;18.70;69.80;;;;;;5030316;28;20701;-73
2022/04/10 11:53:01;;;;;;;0.80;0.80;;;18.80;69.30;;;;;;5029197;28;20597;-73
2022/04/10 11:55:38;;;;;;;2.35;0.80;;;18.60;68.30;;;;;;5030150;28;20211;-73
2022/04/10 11:58:15;;;;;;;1.10;1.00;;;18.40;64.10;;;;;;5025961;28;20682;-75
2022/04/10 12:00:52;;;;;;;1.42;1.25;;;18.20;67.50;;;;;;5031832;28;20526;-74
2022/04/10 12:03:20;;;;;;;1.08;1.00;;;18.20;69.50;;;;;;5030332;28;20421;-74
2022/04/10 12:05:48;;;;;;;1.02;1.02;;;17.70;67.20;;;;;;5027740;28;20578;-75
2022/04/10 12:08:15;;;;;;;0.80;0.80;;;17.30;68.80;;;;;;5029649;28;20250;-73
2022/04/10 12:10:52;;;;;;;0.90;0.90;;;17.20;68.20;;;;;;5026296;28;20273;-71
2022/04/10 12:13:19;;;;;;;1.25;1.02;;;17.20;68.10;;;;;;5031630;28;20238;-73
2022/04/10 12:15:46;;;;;;;1.23;1.10;;;17.10;68.10;;;;;;5028422;28;20374;-74
2022/04/10 12:18:14;;;;;;;1.25;1.20;;;17.30;70.10;;;;;;5028658;28;20229;-74
2022/04/10 12:20:43;;;;;;;0.80;0.80;;;17.60;70.50;;;;;;5028471;28;20253;-72
2022/04/10 12:23:18;;;;;;;1.10;1.00;;;17.80;69.10;;;;;;5028396;28;20196;-72
2022/04/10 12:25:47;;;;;;;0.90;0.90;;;17.80;68.00;;;;;;5027499;28;20368;-75
2022/04/10 12:28:14;;;;;;;1.00;1.00;;;17.80;65.30;;;;;;5029484;28;20513;-72
2022/04/10 12:30:42;;;;;;;1.08;0.98;;;18.00;67.80;;;;;;5025357;28;20253;-73
2022/04/10 12:33:10;;;;;;;0.90;0.90;;;17.40;67.60;;;;;;5030269;28;20220;-73
2022/04/10 12:35:38;;;;;;;1.10;0.95;;;17.10;69.00;;;;;;5026084;28;20219;-73
2022/04/10 12:38:06;;;;;;;0.93;0.93;;;17.20;69.20;;;;;;5026243;28;20196;-73
2022/04/10 12:40:35;;;;;;;1.25;1.20;;;17.40;67.10;;;;;;5028366;28;20797;-73
2022/04/10 12:43:06;;;;;;;0.80;0.80;;;17.50;63.80;;;;;;5028716;28;20286;-73
2022/04/10 12:45:37;;;;;;;0.82;0.82;;;17.40;65.90;;;;;;5025290;28;20215;-73
2022/04/10 12:48:20;;;;;;;1.25;0.90;;;16.90;64.30;;;;;;5028565;28;20277;-74
2022/04/10 12:51:03;;;;;;;0.80;0.80;;;17.10;65.00;;;;;;5029095;28;20220;-74
2022/04/10 12:53:30;;;;;;;1.77;1.05;;;17.40;63.20;;;;;;5027558;28;20579;-75
2022/04/10 12:55:57;;;;;;;0.85;0.80;;;17.50;62.40;;;;;;5027708;28;20235;-73
2022/04/10 12:58:26;;;;;;;0.80;0.80;;;17.50;64.60;;;;;;5028027;28;20565;-75
2022/04/10 13:00:54;;;;;;;0.80;0.75;;;17.70;65.70;;;;;;5024514;28;20234;-77
2022/04/10 13:03:23;;;;;;;2.17;0.98;;;17.80;65.00;;;;;;5031188;28;20201;-73
2022/04/10 13:05:57;;;;;;;0.93;0.93;;;17.60;61.90;;;;;;5032752;28;20766;-74
2022/04/10 13:08:25;;;;;;;0.85;0.85;;;17.50;63.00;;;;;;5025687;28;20214;-74